Doris — 9HA2632 — position and weather

sailwx.info

Track history (hours):
 
Tides and Currents Weather Stations Pressure Air Temp Water Temp Dewpoint Dewpoint Depression Visibility Wind Speed Wind Dir Waves Ship Positions

Doris

Last reported at 2015-Aug-29 11:10 UTC. Time now 2015-Aug-29 19:01 UTC.
Position N 50°19' W 001°08'.

Length 182 m; draft 10.1 m.

Type: Cargo ship. MMSI: 215080000.

Date/timePositionNaut miles runAvg speedWind from/ knotsBaromVisibWave heightAir tempDewpointWater temp
2015-Aug-29 11:10N 50°19' W 001°08'813.4
2015-Aug-29 10:34N 50°21' W 000°56'1211.7
2015-Aug-29 09:33N 50°24' W 000°38'1110.7
2015-Aug-29 08:33N 50°27' W 000°22'1110.7
2015-Aug-29 07:33N 50°30' W 000°06'1411.3
2015-Aug-29 06:17N 50°34' E 000°16'912.6
2015-Aug-29 05:34N 50°36' E 000°30'1413.8
2015-Aug-29 04:33N 50°44' E 000°48'1414.0
2015-Aug-29 03:32N 50°53' E 001°06'1313.2
2015-Aug-29 02:33N 51°01' E 001°22'1211.6
2015-Aug-29 01:33N 51°08' E 001°36'1010.2
2015-Aug-29 00:33N 51°15' E 001°47'1010.0
2015-Aug-28 23:33N 51°24' E 001°54'1111.2
2015-Aug-28 22:33N 51°33' E 002°05'1312.2
2015-Aug-28 21:28N 51°43' E 002°19'38911.8
2015-Aug-27 12:32N 57°16' E 008°07'1111.4
2015-Aug-27 11:33N 57°21' E 008°26'1211.6
2015-Aug-27 10:32N 57°27' E 008°45'1111.7
2015-Aug-27 09:34N 57°32' E 009°03'1211.5
2015-Aug-27 08:33N 57°38' E 009°22'1211.7
2015-Aug-27 07:32N 57°43' E 009°42'1111.3
2015-Aug-27 06:33N 57°48' E 010°01'1211.7
2015-Aug-27 05:32N 57°48' E 010°23'1111.0
2015-Aug-27 04:33N 57°48' E 010°43'1111.2
2015-Aug-27 03:34N 57°42' E 011°00'1212.0
2015-Aug-27 02:33N 57°33' E 011°16'1111.4
2015-Aug-27 01:33N 57°24' E 011°29'1312.9
2015-Aug-27 00:34N 57°12' E 011°38'1312.6
2015-Aug-26 23:34N 57°01' E 011°48'1312.8
2015-Aug-26 22:34N 56°48' E 011°53'1312.4
2015-Aug-26 21:33N 56°36' E 011°45'1313.0
2015-Aug-26 20:33N 56°25' E 011°32'6711.0
2015-Aug-26 14:29N 55°21' E 011°02'910.2
2015-Aug-26 13:34N 55°12' E 011°05'3310.7
2015-Aug-26 10:28N 54°40' E 010°50'1011.3
2015-Aug-26 09:32N 54°36' E 011°07'1212.0
2015-Aug-26 08:34N 54°32' E 011°26'1212.1
2015-Aug-26 07:34N 54°27' E 011°45'1212.1
2015-Aug-26 06:34N 54°26' E 012°05'1210.4
2015-Aug-26 05:23N 54°36' E 012°17'4612.1
2015-Aug-26 01:34N 54°57' E 013°29'1312.5
2015-Aug-26 00:33N 55°01' E 013°49'1212.2
2015-Aug-25 23:33N 55°06' E 014°09'1212.2
2015-Aug-25 22:33N 55°15' E 014°22'1212.3
2015-Aug-25 21:34N 55°25' E 014°35'1212.0
2015-Aug-25 20:33N 55°32' E 014°53'1212.1
2015-Aug-25 19:34N 55°38' E 015°11'12112.0
2015-Aug-25 09:28N 56°45' E 018°12'1112.4
2015-Aug-25 08:33N 56°53' E 018°28'1312.3
2015-Aug-25 07:32N 57°03' E 018°42'1212.4
2015-Aug-25 06:33N 57°12' E 018°55'1212.4
2015-Aug-25 05:34N 57°22' E 019°09'1212.4
2015-Aug-25 04:34N 57°32' E 019°22'1212.4
2015-Aug-25 03:34N 57°42' E 019°36'1212.5
2015-Aug-25 02:33N 57°52' E 019°50'1312.5
2015-Aug-25 01:33N 58°02' E 020°04'1412.7
2015-Aug-25 00:28N 58°14' E 020°19'1212.8
2015-Aug-24 23:34N 58°23' E 020°33'1712.7
2015-Aug-24 22:12N 58°37' E 020°52'3413.1
2015-Aug-24 19:34N 59°04' E 021°32'1312.9
2015-Aug-24 18:32N 59°14' E 021°50'1313.2
2015-Aug-24 17:33N 59°22' E 022°09'1312.8
2015-Aug-24 16:34N 59°30' E 022°29'1312.8
2015-Aug-24 15:33N 59°34' E 022°53'1313.0
2015-Aug-24 14:34N 59°38' E 023°17'1313.1
2015-Aug-24 13:34N 59°41' E 023°42'1313.1
2015-Aug-24 12:33N 59°45' E 024°07'1313.1
2015-Aug-24 11:33N 59°48' E 024°33'1313.0
2015-Aug-24 10:34N 59°51' E 024°58'1313.0
2015-Aug-24 09:33N 59°53' E 025°23'1312.9
2015-Aug-24 08:33N 59°56' E 025°49'1312.9
2015-Aug-24 07:33N 59°59' E 026°14'1212.5
2015-Aug-24 06:33N 60°01' E 026°38'1312.5
2015-Aug-24 05:33N 59°59' E 027°03'7811.1
2015-Aug-23 22:33N 59°60' E 029°39'8 8.1
2015-Aug-23 21:33N 59°57' E 029°54'8 7.7
2015-Aug-23 20:33N 59°54' E 030°08'2 1.9
2015-Aug-23 19:33N 59°53' E 030°11'0 0.0
2015-Aug-23 18:33N 59°53' E 030°11'0 0.0
2015-Aug-23 17:33N 59°53' E 030°11'0 0.0
2015-Aug-23 16:30N 59°53' E 030°11'0 0.0
2015-Aug-23 15:33N 59°53' E 030°11'0 0.0
2015-Aug-23 14:33N 59°53' E 030°11'0 0.0
2015-Aug-23 13:33N 59°53' E 030°11'0 0.0
2015-Aug-23 12:33N 59°53' E 030°11'0 0.0
2015-Aug-23 11:33N 59°53' E 030°11'0 0.0
2015-Aug-23 10:33N 59°53' E 030°11'0 0.0
2015-Aug-23 09:30N 59°53' E 030°11'0 0.0
2015-Aug-23 08:33N 59°53' E 030°11'0 0.0
2015-Aug-23 07:33N 59°53' E 030°11'0 0.0
2015-Aug-23 06:33N 59°53' E 030°11'0 0.0
2015-Aug-23 05:33N 59°53' E 030°11'0 0.0
2015-Aug-23 04:30N 59°53' E 030°11'0 0.0
2015-Aug-23 03:33N 59°53' E 030°11'0 0.0
2015-Aug-23 02:33N 59°53' E 030°11'0 0.0
2015-Aug-23 01:33N 59°53' E 030°11'0 0.0
2015-Aug-23 00:33N 59°53' E 030°11'0 0.0
2015-Aug-22 23:33N 59°53' E 030°11'0 0.0
2015-Aug-22 22:33N 59°53' E 030°11'0 0.0
2015-Aug-22 21:33N 59°53' E 030°11'0 0.0
2015-Aug-22 20:33N 59°53' E 030°11'0 0.0
2015-Aug-22 19:33N 59°53' E 030°11'0 0.0
2015-Aug-22 18:33N 59°53' E 030°11'0 0.0
2015-Aug-22 17:33N 59°53' E 030°11'0 0.0
2015-Aug-22 16:33N 59°53' E 030°11'1 0.6
2015-Aug-22 15:33N 59°53' E 030°10'10 9.8
2015-Aug-22 14:33N 59°57' E 029°52'1211.0
2015-Aug-22 13:29N 60°01' E 029°30'4 3.8
2015-Aug-22 12:33N 60°02' E 029°24'0 0.0
2015-Aug-22 11:33N 60°02' E 029°24'0 0.0
2015-Aug-22 06:33N 60°02' E 029°24'0 0.0
2015-Aug-22 05:27N 60°02' E 029°24'0 0.0
2015-Aug-22 03:22N 60°02' E 029°24'0 0.0
2015-Aug-21 23:33N 60°02' E 029°24'1 1.5
2015-Aug-21 22:33N 60°02' E 029°21'1310.6
2015-Aug-21 21:20N 60°02' E 028°55'1613.8
2015-Aug-21 20:12N 60°03' E 028°24'2213.1
2015-Aug-21 18:33N 60°09' E 027°42'1514.1
2015-Aug-21 17:28N 60°01' E 027°16'1213.4
2015-Aug-21 16:33N 59°59' E 026°52'1413.8
2015-Aug-21 15:33N 59°57' E 026°25'1414.1
2015-Aug-21 14:33N 59°53' E 025°57'1414.2
2015-Aug-21 13:33N 59°50' E 025°30'5814.0
2015-Aug-21 09:24N 59°36' E 023°38'1313.3
2015-Aug-21 08:26N 59°31' E 023°14'25713.6
2015-Aug-20 13:31N 56°26' E 017°38'4313.6
2015-Aug-20 10:21N 55°60' E 016°36'1113.6
2015-Aug-20 09:33N 55°54' E 016°20'1413.6
2015-Aug-20 08:33N 55°48' E 015°58'1313.5
2015-Aug-20 07:33N 55°41' E 015°37'1413.6
2015-Aug-20 06:34N 55°35' E 015°16'1413.7
2015-Aug-20 05:33N 55°29' E 014°54'1413.7
2015-Aug-20 04:33N 55°21' E 014°34'1414.0
2015-Aug-20 03:33N 55°10' E 014°20'1313.3
2015-Aug-20 02:33N 55°11' E 013°56'1413.4
2015-Aug-20 01:33N 55°12' E 013°33'1312.8
2015-Aug-20 00:33N 55°14' E 013°10'1312.7
2015-Aug-19 23:33N 55°16' E 012°49'10 9.9
2015-Aug-19 22:33N 55°24' E 012°39'1212.3
2015-Aug-19 21:33N 55°36' E 012°42'1111.1
2015-Aug-19 20:33N 55°47' E 012°41'1312.7
2015-Aug-19 19:33N 55°60' E 012°38'8 8.1
2015-Aug-19 18:33N 56°07' E 012°31'2211.0
2015-Aug-19 16:33N 56°22' E 012°01'1212.4
2015-Aug-19 15:33N 56°34' E 011°57'1313.2
2015-Aug-19 14:33N 56°46' E 011°52'1413.3
2015-Aug-19 13:28N 57°00' E 011°43'1212.9
2015-Aug-19 12:33N 57°11' E 011°35'1312.8
2015-Aug-19 11:33N 57°23' E 011°27'  
Track history (hours):
 
Tides and Currents Weather Stations Pressure Air Temp Water Temp Dewpoint Dewpoint Depression Visibility Wind Speed Wind Dir Waves Ship Positions

Doris

Last reported at 2015-Aug-29 11:10 UTC. Time now 2015-Aug-29 19:01 UTC.
Position N 50°19' W 001°08'.

Length 182 m; draft 10.1 m.

Type: Cargo ship. MMSI: 215080000.

Date/timePositionNaut miles runAvg speedWind from/ knotsBaromVisibWave heightAir tempDewpointWater temp
2015-Aug-29 11:10N 50°19' W 001°08'813.4
2015-Aug-29 10:34N 50°21' W 000°56'1211.7
2015-Aug-29 09:33N 50°24' W 000°38'1110.7
2015-Aug-29 08:33N 50°27' W 000°22'1110.7
2015-Aug-29 07:33N 50°30' W 000°06'1411.3
2015-Aug-29 06:17N 50°34' E 000°16'912.6
2015-Aug-29 05:34N 50°36' E 000°30'1413.8
2015-Aug-29 04:33N 50°44' E 000°48'1414.0
2015-Aug-29 03:32N 50°53' E 001°06'1313.2
2015-Aug-29 02:33N 51°01' E 001°22'1211.6
2015-Aug-29 01:33N 51°08' E 001°36'1010.2
2015-Aug-29 00:33N 51°15' E 001°47'1010.0
2015-Aug-28 23:33N 51°24' E 001°54'1111.2
2015-Aug-28 22:33N 51°33' E 002°05'1312.2
2015-Aug-28 21:28N 51°43' E 002°19'38911.8
2015-Aug-27 12:32N 57°16' E 008°07'1111.4
2015-Aug-27 11:33N 57°21' E 008°26'1211.6
2015-Aug-27 10:32N 57°27' E 008°45'1111.7
2015-Aug-27 09:34N 57°32' E 009°03'1211.5
2015-Aug-27 08:33N 57°38' E 009°22'1211.7
2015-Aug-27 07:32N 57°43' E 009°42'1111.3
2015-Aug-27 06:33N 57°48' E 010°01'1211.7
2015-Aug-27 05:32N 57°48' E 010°23'1111.0
2015-Aug-27 04:33N 57°48' E 010°43'1111.2
2015-Aug-27 03:34N 57°42' E 011°00'1212.0
2015-Aug-27 02:33N 57°33' E 011°16'1111.4
2015-Aug-27 01:33N 57°24' E 011°29'1312.9
2015-Aug-27 00:34N 57°12' E 011°38'1312.6
2015-Aug-26 23:34N 57°01' E 011°48'1312.8
2015-Aug-26 22:34N 56°48' E 011°53'1312.4
2015-Aug-26 21:33N 56°36' E 011°45'1313.0
2015-Aug-26 20:33N 56°25' E 011°32'6711.0
2015-Aug-26 14:29N 55°21' E 011°02'910.2
2015-Aug-26 13:34N 55°12' E 011°05'3310.7
2015-Aug-26 10:28N 54°40' E 010°50'1011.3
2015-Aug-26 09:32N 54°36' E 011°07'1212.0
2015-Aug-26 08:34N 54°32' E 011°26'1212.1
2015-Aug-26 07:34N 54°27' E 011°45'1212.1
2015-Aug-26 06:34N 54°26' E 012°05'1210.4
2015-Aug-26 05:23N 54°36' E 012°17'4612.1
2015-Aug-26 01:34N 54°57' E 013°29'1312.5
2015-Aug-26 00:33N 55°01' E 013°49'1212.2
2015-Aug-25 23:33N 55°06' E 014°09'1212.2
2015-Aug-25 22:33N 55°15' E 014°22'1212.3
2015-Aug-25 21:34N 55°25' E 014°35'1212.0
2015-Aug-25 20:33N 55°32' E 014°53'1212.1
2015-Aug-25 19:34N 55°38' E 015°11'12112.0
2015-Aug-25 09:28N 56°45' E 018°12'1112.4
2015-Aug-25 08:33N 56°53' E 018°28'1312.3
2015-Aug-25 07:32N 57°03' E 018°42'1212.4
2015-Aug-25 06:33N 57°12' E 018°55'1212.4
2015-Aug-25 05:34N 57°22' E 019°09'1212.4
2015-Aug-25 04:34N 57°32' E 019°22'1212.4
2015-Aug-25 03:34N 57°42' E 019°36'1212.5
2015-Aug-25 02:33N 57°52' E 019°50'1312.5
2015-Aug-25 01:33N 58°02' E 020°04'1412.7
2015-Aug-25 00:28N 58°14' E 020°19'1212.8
2015-Aug-24 23:34N 58°23' E 020°33'1712.7
2015-Aug-24 22:12N 58°37' E 020°52'3413.1
2015-Aug-24 19:34N 59°04' E 021°32'1312.9
2015-Aug-24 18:32N 59°14' E 021°50'1313.2
2015-Aug-24 17:33N 59°22' E 022°09'1312.8
2015-Aug-24 16:34N 59°30' E 022°29'1312.8
2015-Aug-24 15:33N 59°34' E 022°53'1313.0
2015-Aug-24 14:34N 59°38' E 023°17'1313.1
2015-Aug-24 13:34N 59°41' E 023°42'1313.1
2015-Aug-24 12:33N 59°45' E 024°07'1313.1
2015-Aug-24 11:33N 59°48' E 024°33'1313.0
2015-Aug-24 10:34N 59°51' E 024°58'1313.0
2015-Aug-24 09:33N 59°53' E 025°23'1312.9
2015-Aug-24 08:33N 59°56' E 025°49'1312.9
2015-Aug-24 07:33N 59°59' E 026°14'1212.5
2015-Aug-24 06:33N 60°01' E 026°38'1312.5
2015-Aug-24 05:33N 59°59' E 027°03'7811.1
2015-Aug-23 22:33N 59°60' E 029°39'8 8.1
2015-Aug-23 21:33N 59°57' E 029°54'8 7.7
2015-Aug-23 20:33N 59°54' E 030°08'2 1.9
2015-Aug-23 19:33N 59°53' E 030°11'0 0.0
2015-Aug-23 18:33N 59°53' E 030°11'0 0.0
2015-Aug-23 17:33N 59°53' E 030°11'0 0.0
2015-Aug-23 16:30N 59°53' E 030°11'0 0.0
2015-Aug-23 15:33N 59°53' E 030°11'0 0.0
2015-Aug-23 14:33N 59°53' E 030°11'0 0.0
2015-Aug-23 13:33N 59°53' E 030°11'0 0.0
2015-Aug-23 12:33N 59°53' E 030°11'0 0.0
2015-Aug-23 11:33N 59°53' E 030°11'0 0.0
2015-Aug-23 10:33N 59°53' E 030°11'0 0.0
2015-Aug-23 09:30N 59°53' E 030°11'0 0.0
2015-Aug-23 08:33N 59°53' E 030°11'0 0.0
2015-Aug-23 07:33N 59°53' E 030°11'0 0.0
2015-Aug-23 06:33N 59°53' E 030°11'0 0.0
2015-Aug-23 05:33N 59°53' E 030°11'0 0.0
2015-Aug-23 04:30N 59°53' E 030°11'0 0.0
2015-Aug-23 03:33N 59°53' E 030°11'0 0.0
2015-Aug-23 02:33N 59°53' E 030°11'0 0.0
2015-Aug-23 01:33N 59°53' E 030°11'0 0.0
2015-Aug-23 00:33N 59°53' E 030°11'0 0.0
2015-Aug-22 23:33N 59°53' E 030°11'0 0.0
2015-Aug-22 22:33N 59°53' E 030°11'0 0.0
2015-Aug-22 21:33N 59°53' E 030°11'0 0.0
2015-Aug-22 20:33N 59°53' E 030°11'0 0.0
2015-Aug-22 19:33N 59°53' E 030°11'0 0.0
2015-Aug-22 18:33N 59°53' E 030°11'0 0.0
2015-Aug-22 17:33N 59°53' E 030°11'0 0.0
2015-Aug-22 16:33N 59°53' E 030°11'1 0.6
2015-Aug-22 15:33N 59°53' E 030°10'10 9.8
2015-Aug-22 14:33N 59°57' E 029°52'1211.0
2015-Aug-22 13:29N 60°01' E 029°30'4 3.8
2015-Aug-22 12:33N 60°02' E 029°24'0 0.0
2015-Aug-22 11:33N 60°02' E 029°24'0 0.0
2015-Aug-22 06:33N 60°02' E 029°24'0 0.0
2015-Aug-22 05:27N 60°02' E 029°24'0 0.0
2015-Aug-22 03:22N 60°02' E 029°24'0 0.0
2015-Aug-21 23:33N 60°02' E 029°24'1 1.5
2015-Aug-21 22:33N 60°02' E 029°21'1310.6
2015-Aug-21 21:20N 60°02' E 028°55'1613.8
2015-Aug-21 20:12N 60°03' E 028°24'2213.1
2015-Aug-21 18:33N 60°09' E 027°42'1514.1
2015-Aug-21 17:28N 60°01' E 027°16'1213.4
2015-Aug-21 16:33N 59°59' E 026°52'1413.8
2015-Aug-21 15:33N 59°57' E 026°25'1414.1
2015-Aug-21 14:33N 59°53' E 025°57'1414.2
2015-Aug-21 13:33N 59°50' E 025°30'5814.0
2015-Aug-21 09:24N 59°36' E 023°38'1313.3
2015-Aug-21 08:26N 59°31' E 023°14'25713.6
2015-Aug-20 13:31N 56°26' E 017°38'4313.6
2015-Aug-20 10:21N 55°60' E 016°36'1113.6
2015-Aug-20 09:33N 55°54' E 016°20'1413.6
2015-Aug-20 08:33N 55°48' E 015°58'1313.5
2015-Aug-20 07:33N 55°41' E 015°37'1413.6
2015-Aug-20 06:34N 55°35' E 015°16'1413.7
2015-Aug-20 05:33N 55°29' E 014°54'1413.7
2015-Aug-20 04:33N 55°21' E 014°34'1414.0
2015-Aug-20 03:33N 55°10' E 014°20'1313.3
2015-Aug-20 02:33N 55°11' E 013°56'1413.4
2015-Aug-20 01:33N 55°12' E 013°33'1312.8
2015-Aug-20 00:33N 55°14' E 013°10'1312.7
2015-Aug-19 23:33N 55°16' E 012°49'10 9.9
2015-Aug-19 22:33N 55°24' E 012°39'1212.3
2015-Aug-19 21:33N 55°36' E 012°42'1111.1
2015-Aug-19 20:33N 55°47' E 012°41'1312.7
2015-Aug-19 19:33N 55°60' E 012°38'8 8.1
2015-Aug-19 18:33N 56°07' E 012°31'2211.0
2015-Aug-19 16:33N 56°22' E 012°01'1212.4
2015-Aug-19 15:33N 56°34' E 011°57'1313.2
2015-Aug-19 14:33N 56°46' E 011°52'1413.3
2015-Aug-19 13:28N 57°00' E 011°43'1212.9
2015-Aug-19 12:33N 57°11' E 011°35'1312.8
2015-Aug-19 11:33N 57°23' E 011°27'  

Dump ship's entire track history